Mansfield, OH

2:03 PM EDT on August 24, 2016 (GMT -0400)
Mansfield Lahm Regional | | Change Station

Elev 1296 ft 40.82 °N, 82.52 °W | Updated 11 minutes ago

Mostly Cloudy
Mostly Cloudy
82 °F
Feels Like 84 °F
N
17
Wind Variable Wind from SSW
Gusts 21 mph

Today
High -- | Low -- °F
--% Chance of Precip.
Yesterday
High -- | Low -- °F
Precip. -- in
Pressure 30.14 in
Visibility 10.0 miles
Clouds Scattered Clouds 3500 ft
Mostly Cloudy 5000 ft
Heat Index 84 °F
Dew Point 65 °F
Humidity 56%
Rainfall 0.00 in
Snow Depth Not available.
6:49 AM 8:14 PM
Waning Gibbous, 55% visible
METAR KMFD 241752Z 20015G18KT 10SM SCT035 BKN050 28/18 A3016 RMK AO2 SLP207 T02780183 10278 20183 58012
Pressure 30.14 in
Visibility 10.0 miles
Clouds Scattered Clouds 3500 ft
Mostly Cloudy 5000 ft
Heat Index 84 °F
Dew Point 65 °F
Humidity 56%
Rainfall 0.00 in
Snow Depth Not available.
6:49 AM 8:14 PM
Waning Gibbous, 55% visible
METAR KMFD 241752Z 20015G18KT 10SM SCT035 BKN050 28/18 A3016 RMK AO2 SLP207 T02780183 10278 20183 58012

10-Day Weather Forecast

Almanac

Astronomy

Aug. 24, 2016 Rise Set
Actual Time
Civil Twilight
Nautical Twilight
Astronomical Twilight
Moon
Length of Visible Light
Length of Day
Tomorrow will be .
, % of the Moon is Illuminated

Today's Extremes

State Highs State Lows

Community

WunderPhotos

Upload Photos

1,934,662 photos uploaded!

WunderBlog® & News

Nearby

Air Quality

  Air Quality AQ Index Pollutant
Not available.

Snow Depth

Station Depth Elevation

Earthquake Activity

City Distance Mag. Time & Date
Minimum magnitude displayed is 2.5.

Coastal Water Temperatures

Place Temperature

Stations

Nearby Weather Stations

Station Location Temp. Windchill Dew Point Humidity Wind Precip. Elev Updated Type
                   

Watches & Warnings

There are currently no watches in effect.